NOTICIAS

19/04/2017Fenómeno: persistencia de precipitaciones Se informa a la población sobre fenómenos meteorológicos a tener en cuenta en las próximas horas. Este aviso no representa un cambio del nivel de riesgo meteorológico.Se comunica que las precipitaciones que comenzaron en el norte del país en el día de ayer, martes 18 de abril, continuarán durante la jornada de hoy en el resto del territorio nacional y durante el jueves 20, principalmente en la región sur del país. Se prevé que en el día de mañana, las condiciones mejoren paulatinamente.Los acumulados más importantes de precipitaciones se registrarán en los departamentos del noreste del país, comprendiendo en particular, aquellos afectados por las intensas precipitaciones ocurridas entre el sábado 8 y el lunes 10.Continuaremos monitoreando la situación e informaremos ante eventuales cambios.

Productos aeronáuticos

  • SIGMET
  • METAR / SPECI
  • TAF
  • AIREP
  • Aviso de aeródromo
  • Pronárea
  • Carta superficie
Fecha : 24/04/2017
FTUY 03 SUMU 24 11 30
SUMU TAF 241130Z 2412/2512 03015KT 9999 FEW020 BKN070 TX22/2418Z TN13/2510Z PROB30 TEMPO 2412/2418 8000 RA BKN015 BKN070=
SULS TAF 241130Z 2412/2512 03015KT 9999 FEW020 BKN070 TX22/2418Z TN13/2510Z PROB30 TEMPO 2412/2418 8000 RA BKN015 BKN070=
SUAA TAF 241130Z 2412/2512 03015KT 9999 FEW020 BKN070 TX22/2418Z TN13/2510Z PROB30 TEMPO 2412/2418 8000 RA BKN015 BKN070=
SUCA TAF 241130Z 2412/2512 03015KT 9999 FEW020 BKN070 TX22/2418Z TN13/2510Z PROB30 TEMPO 2412/2418 8000 RA BKN015 BKN070=
SUDU TAF 241130Z 2412/2512 03015KT 9999 FEW020 BKN070 TX22/2418Z TN13/2510Z PROB30 TEMPO 2412/2418 8000 RA BKN015 BKN070=
SUSO TAF 241130Z 2412/2512 05015KT 9999 SCT020 BKN070 TX23/2418Z TN08/2410Z PROB30 TEMPO 2412/2418 8000 RA BKN015 BKN070=
SURV TAF 241130Z 2412/2512 05015KT 9999 SCT020 BKN070 TX23/2418Z TN08/2410Z PROB30 TEMPO 2412/2418 8000 RA BKN015 BKN070=

Predictor : Ines Rodriguez


Mensajes TAF vigentes - Internacionales


Argentina
TAF COR SAAR 241100Z 2412/2512 VRB03KT 9000 RA SCT020 BKN10 TX25/2418Z TN14/2509Z BECMG 2414/2416 9999 SCT030 SCT100 BECMG 2422/2500 05003KT 7000 NSC BECMG 2506/2508 09003KT 0800 BCFG BKN008
TAF SAME 241100Z 2412/2512 14005KT 9999 VCDZ FEW015 BKN030 TX19/2420Z TN12/2510Z
TAF SAEZ 241100Z 2412/2512 06010KT 9999 SCT030 BKN070 TX21/2418Z TN11/2509Z BECMG 2415/2418 9999 SCT020 FEW050 BECMG 2500/2503 VRB05KT 5000 BR PROB40 2506/2511 05003KT 0500 BCFG BR BKN003
TAF SACO 241100Z 2412/2512 20005KT 20005KT 7000 SCT020 TX23/2418Z TN12/2510Z BECMG 2413/2415 02003KT 9999 BKN020 PROB30 TEMPO 2420/2422 02005KT 5000 VCTS RA BKN015 FEW030TCU PROB30 TEMPO 2507/2510 18015KT 2000 TSRA OVC010 FEW035CB
TAF COR SABE 241100Z 2412/2512 05010KT 9999 SCT025 BKN100 TX22/2418Z TN15/2509Z BECMG 2417/2419 02010KT CAVOK BECMG 2504/2506 05003KT 0800 BCFG BKN008
Bolivia
TAF SLLP 241030Z 2412/2512 15005KT 9999 FEW015 TX16/2420Z TNM01/2510Z TEMPO 2418/2421 07012KT FEW017 FEW020CB BECMG 2506/2509 4000 VCFG FEW002 SCT013
Brasil
TAF SBGR 250900Z 2412/2518 08005KT 9999 SCT030 TN15/2508Z TX27/2517Z BECMG 2412/2414 03006KT FEW030 BECMG 2418/2420 12006KT FEW025 PROB30 2420/2423 15007KT BKN012 BECMG 2500/2502 07005KT CAVOK BECMG 2506/2508 06002KT 4500 BR PROB30 2508/2510 0800 FG BKN005 BECMG 2511/2513 05005KT SCT030 BECMG 2515/2517 34005KT RMK PHG
TAF SBSP 250900Z 2412/2512 09007KT 9999 FEW020 TX24/2417Z TN15/2508Z BECMG 2413/2415 03005KT FEW030 BECMG 2418/2420 15010KT PROB30 2421/2423 6000 BKN009 BECMG 2423/2501 06005KT CAVOK PROB40 2508/2511 4000 BR BKN005 RMK PHG
TAF SBFL 241000Z 2412/2512 03012KT 9999 FEW030 TX26/2418Z TN20/2508Z RMK PEB
TAF SBFI 241000Z 2412/2512 12004KT CAVOK TX26/2418Z TN21/2508Z RMK PE B
TAF SBPA 241000Z 2412/2512 10004KT CAVOK TX24/2418Z TN17/2508Z BECMG 2421/2424 9999 FEW020 RMK PEB
TAF SBRJ 240900Z 2412/2424 02005KT 8000 SCT020 BKN040 TX25/2416Z TN20/2424Z BECMG 2415/2417 16010KT SCT020 RMK PHD
TAF SBBR 240800Z 2412/2512 11005KT 7000 FEW020 TX26/2416Z TN18/2509Z BECMG 2418/2420 10005KT 7000 SCT040 BECMG 2500/2502 16005KT CAVOK BECMG 25 06/2508 18005KT 7000 SCT010 RMK PDE
Colombia
TAF SKBO 241100Z 2412/2512 03006KT 9999 FEW020 SCT100 BECMG 2414/2416 12010KT SCT020 BKN090 TEMPO 2420/2423 30008KT BECMG 2502/2503 03006KT FEW020 TX22/2418Z TN07/2511Z
Chile
TAF SCCI 241022Z 2412/2512 05017KT 9000 -RA DZ SCT010 BKN050 TN04/2509Z TX10/2418Z TEMPO 2412/2417 09010KT 5000 -RA BR SCT008 OVC010 BECMG 2418/2420 VRB03KT BECMG 2420/2422 29010KT FEW020 BKN035 BECMG 2422/2500 26012KT NSW FEW030 SCT040
TAF SCEL 241020Z 2412/2512 15004KT CAVOK TX21/2418Z TN08/2510Z TEMPO 2412/2414 VRB02KT 7000 BECMG 2418/2420 20012KT BKN150 BECMG 2500/2502 15004KT BECMG 2503/2505 FEW130 TEMPO 2507/2512 VRB02KT 7000 NSC
Ecuador
SEQM 240920Z 2412/2512 VRB03KT 9999 SCT030 SCT100 FM241700 36012KT 9999 BKN030 SCT100 PROB30 TEMPO 2420/2423 TSRA SCT023CB FM250100 03003KT 9999 SCT010 BKN020 FM250600 00000KT 6000 BCFG SCT005 OVC020 TX25/2419Z TN10/2511Z
EEUU
KMIA 241259Z 2413/2512 VRB03KT 6SM BR SCT004 FM241400 28006KT P6SM SCT030 SCT100 BKN250 FM241600 26015G25KT P6SM FEW030 BKN050 BKN120 FM250000 27010KT P6SM FEW030 SCT250
KLGA 241150Z 2412/2512 06006KT P6SM BKN180 FM241800 07010KT P6SM BKN120 FM242200 08010KT P6SM VCSH SCT050 BKN080 FM250300 07010KT P6SM -RA SCT015 OVC060 FM250600 06011KT 5SM -RA BR BKN015 OVC050 FM251000 06017KT 2SM -RA BR BKN007 OVC010
KJFK 241150Z 2412/2518 13003KT P6SM BKN180 FM241500 10005KT P6SM BKN150 FM241800 12011KT P6SM BKN120 FM242200 11011KT P6SM VCSH SCT050 BKN080 FM250300 07010KT P6SM -RA SCT015 OVC060 FM250600 06011KT 5SM -RA BR BKN015 OVC050 FM251000 06014G21KT 2SM -RA BR BKN007 OVC010
KDCA 241129Z 2412/2512 05010G18KT P6SM VCSH SCT025 OVC050 FM241900 05012G20KT 5SM -RA BKN025 OVC050 FM242200 05012G20KT 5SM -RA BKN015 OVC025 FM250100 04010G18KT 5SM -RA BKN008 OVC015 FM250700 04010KT 5SM -RA BR BKN008 OVC015
KIAD 241129Z 2412/2518 04008KT P6SM VCSH SCT025 OVC050 FM241500 04010G18KT P6SM VCSH SCT025 OVC050 FM241900 04010G18KT 5SM -RA BKN025 OVC050 FM242200 04010G18KT 5SM -RA BKN015 OVC025 FM250100 04008KT 5SM -RA BR BKN008 OVC015 FM251500 04010G18KT 5SM -RA BR BKN008 OVC015
España
TAF LEBL 241100Z 2412/2512 20012KT CAVOK TX20/2412Z TN10/2506Z BECMG 2417/2419 VRB04KT BECMG 2423/2501 33008KT
TAF LEMD 241100Z 2412/2518 22010KT CAVOK TX26/2415Z TN10/2506Z TEMPO 2412/2420 FEW040TCU PROB40 TEMPO 2414/2420 SHRA FEW040CB PROB30 TEMPO 2414/2419 22015G25KT TSRA SCT040CB TEMPO 2420/2509 VRB05KT TEMPO 2511/2518 22018G28KT TEMPO 2509/2518 SHRA SCT040TCU
Francia
TAF LFPO 241100Z 2412/2518 30005KT CAVOK BECMG 2503/2506 BKN016 TEMPO 2505/2512 -RA BKN012 BECMG 2510/2512 BKN030 BECMG 2513/2515 CAVOK
Inglaterra
TAF EGLL 241055Z 2412/2518 27008KT 9999 SCT030 PROB30 TEMPO 2413/2418 7000 SHRA BKN014 BECMG 2415/2418 33012KT PROB30 TEMPO 2504/2508 BKN012 TEMPO 2512/2518 7000 SHRA PROB30 TEMPO 2515/2518 4000 +SHRA SHGS BKN014 BKN030CB
Panamá
TAF MPTO 241100Z 2412/2518 VRB02KT 9999 FEW020 SCT090 TEMPO 2422/2502 17004KT
Paraguay
TAF SGAS 241111Z 2412/2512 06006KT 9999 FEW033 TX26/2419Z TN20/2510Z BECMG 2413/2416 VRB05KT 9999 BKN020 PROB30 TEMPO 2421/2423 7000 RA BKN020
Venezuela
TAF SVMI 241000Z 2412/2512 09005KT 9999 SCT016 TX33/18Z TN25/08Z BECMG 2412/2416 05005KT FEW016 SCT100

* Datos extraidos del Text DataServer de la NOAA (NOAA TEXT DATA SERVER)

Instituto Uruguayo de Meteorología

Dr. Javier Barrios Amorín 1488 - CP 11200
Mesa Central (598) 1895

Montevideo - Uruguay